Saint-Simon-De-Rimouski, Canada
Current Conditions -  °F | °C
As of 3:00 AM on Friday 31 Oct 2014 (Local Time) from CYYY Reporting Station
Few Clouds Few Clouds  
Wind Chill: 32°   Ceiling: Unl
Heat Index: 37°   Visibility: 30mi
Dew Point: 32°   Wind: 7mph
Humidity: 81%   Direction: 230°SW
Pressure: 29.97"   Gusts: NA
Location:  48.2°N, 69.02°W
Report Text: CYYY 310700Z 23006KT 30SM FEW040 03/00 A2997 RMK SC1 SLP150
Loading
Personal Weather Stations






























Interactive Weather Map New forecast layout! Learn more

10-Day Weather Forecast

Advertisements
Track Severe Weather on mobile